Aeroporto :
LOGIN :

Iscrizione | Disclaimer

   EN    FR    IT 

 










Sommario :    VFR   VFR Marginale   IFR   IFR Intensivo   IFR Molto Intensivo
Visibilità : 
Base nubi : 
>= 8 km
>= 3000ft
5 / 8 km
1000 / 3000 ft
1500m / 5 km
500 / 1000 ft
800 / 1500m
200 / 500 ft
< 800m
< 200 ft
Simboli :   Temporali  Nebbia  Neve Forte  Precipitazioni Forti  Vento > 20 kt
SIGMETs :   Varie  Temporali  Ghiacco  Turbolenza  Onda orograficha  Ceneri Vulcaniche






- Altitudine del aeroporto : 124 ft
- Codice IATA : NHT


EGWU - RAF Northolt

ULTIMO METAR :
  • 301920Z 24007KT 9999 FEW040 SCT080 16/09 Q1012 NOSIG RMK BLU BLU

METARs OBSOLETI :
  • 301850Z 29001KT 9999 FEW035CB 17/10 Q1012 NOSIG RMK BLU BLU
  • 301820Z 32006KT 9999 FEW035CB SCT045 15/10 Q1012 TEMPO 7000 SHRA RMK BLU TEMPO WHT
  • 301803Z 31007KT 9999 FEW035CB SCT045 15/10 Q1012 TEMPO 7000 SHRA RMK BLU TEMPO WHT
  • 301750Z 30009KT 9999 7000N VCSH FEW035TCU BKN040 15/10 Q1012 TEMPO 9999 NSW
  • 301720Z 33012KT 9999 FEW035CB BKN040 16/09 Q1012 TEMPO 7000 SHRA RMK BLU TEMPO WHT
  • 301650Z 33009KT 9999 VCSH FEW038CB SCT040 17/11 Q1012 TEMPO 7000 SHRA

TAF AMD TAF EGWU
Valido dal 30 a 18 ore il 01 a 12 ore UTC


301736Z 3018/0112 24010KT 9999 SCT040
TEMPO 3018/3024 7000 SHRA
PROB30
TEMPO 3018/3024 4000 +SHRA BKN024CB
PROB40
TEMPO 0102/0107 SCT008
PROB30
TEMPO 0105/0106 SCT006
PROB30
TEMPO 0107/0109 SCT020
PROB30
TEMPO 0109/0112 7000 SHRA



MetMap, La meteo Aeronautica in un colpo d'occhio ! - Copyright ORBIFLY Dicembre 2007 - Disclaimer

ORBIFLY MET'MAP TEAM :

Programmazione e sviluppo : Alexandra Zaïnal
Concezione : Baudouin d'Aumeries
Supporto tecnico e logistico : Manuel Goepfert
Aiuto : Marc-Olivier Méhu
Aiuto per la traduzione : Arnaldo La Scala




FONTI E CREDITI :

   NOAA